sensor_id;sensor_type;location;lat;lon;timestamp;temperature;humidity
46784;DHT22;32544;52.832;13.816;2023-06-22T00:00:30;26.80;54.80
46784;DHT22;32544;52.832;13.816;2023-06-22T00:01:30;26.70;54.70
46784;DHT22;32544;52.832;13.816;2023-06-22T00:02:31;26.80;54.80
46784;DHT22;32544;52.832;13.816;2023-06-22T00:03:31;26.70;54.70
46784;DHT22;32544;52.832;13.816;2023-06-22T00:04:32;26.70;54.70
46784;DHT22;32544;52.832;13.816;2023-06-22T00:05:32;26.70;54.70
46784;DHT22;32544;52.832;13.816;2023-06-22T00:06:33;26.70;54.70
46784;DHT22;32544;52.832;13.816;2023-06-22T00:07:34;26.70;54.70
46784;DHT22;32544;52.832;13.816;2023-06-22T00:08:34;26.70;54.70
46784;DHT22;32544;52.832;13.816;2023-06-22T00:09:35;26.70;54.70
46784;DHT22;32544;52.832;13.816;2023-06-22T00:10:36;26.70;54.70
46784;DHT22;32544;52.832;13.816;2023-06-22T00:11:37;26.70;54.60
46784;DHT22;32544;52.832;13.816;2023-06-22T00:12:38;26.70;54.70
46784;DHT22;32544;52.832;13.816;2023-06-22T00:13:38;26.70;54.70
46784;DHT22;32544;52.832;13.816;2023-06-22T00:14:39;26.70;54.70
46784;DHT22;32544;52.832;13.816;2023-06-22T00:15:40;26.70;54.70
46784;DHT22;32544;52.832;13.816;2023-06-22T00:16:41;26.70;54.60
46784;DHT22;32544;52.832;13.816;2023-06-22T00:17:43;26.70;54.70
46784;DHT22;32544;52.832;13.816;2023-06-22T00:18:43;26.70;54.60
46784;DHT22;32544;52.832;13.816;2023-06-22T00:19:47;26.70;54.70
46784;DHT22;32544;52.832;13.816;2023-06-22T00:20:48;26.70;54.70
46784;DHT22;32544;52.832;13.816;2023-06-22T00:21:48;26.70;54.70
46784;DHT22;32544;52.832;13.816;2023-06-22T00:22:53;26.70;54.60
46784;DHT22;32544;52.832;13.816;2023-06-22T00:23:54;26.70;54.60
46784;DHT22;32544;52.832;13.816;2023-06-22T00:24:56;26.70;54.60
46784;DHT22;32544;52.832;13.816;2023-06-22T00:25:56;26.70;54.60
46784;DHT22;32544;52.832;13.816;2023-06-22T00:26:57;26.70;54.70
46784;DHT22;32544;52.832;13.816;2023-06-22T00:27:57;26.70;54.60
46784;DHT22;32544;52.832;13.816;2023-06-22T00:28:58;26.70;54.60
46784;DHT22;32544;52.832;13.816;2023-06-22T00:29:59;26.70;54.60
46784;DHT22;32544;52.832;13.816;2023-06-22T00:30:59;26.70;54.70
46784;DHT22;32544;52.832;13.816;2023-06-22T00:32:00;26.70;54.60
46784;DHT22;32544;52.832;13.816;2023-06-22T00:33:01;26.70;54.60
46784;DHT22;32544;52.832;13.816;2023-06-22T00:34:02;26.70;54.60
46784;DHT22;32544;52.832;13.816;2023-06-22T00:35:02;26.70;54.60
46784;DHT22;32544;52.832;13.816;2023-06-22T00:36:04;26.70;54.60
46784;DHT22;32544;52.832;13.816;2023-06-22T00:37:05;26.70;54.60
46784;DHT22;32544;52.832;13.816;2023-06-22T00:38:08;26.70;54.60
46784;DHT22;32544;52.832;13.816;2023-06-22T00:39:09;26.70;54.60
46784;DHT22;32544;52.832;13.816;2023-06-22T00:40:10;26.70;54.70
46784;DHT22;32544;52.832;13.816;2023-06-22T00:41:12;26.70;54.60
46784;DHT22;32544;52.832;13.816;2023-06-22T00:42:12;26.70;54.60
46784;DHT22;32544;52.832;13.816;2023-06-22T00:43:13;26.70;54.60
46784;DHT22;32544;52.832;13.816;2023-06-22T00:44:13;26.70;54.60
46784;DHT22;32544;52.832;13.816;2023-06-22T00:45:14;26.70;54.60
46784;DHT22;32544;52.832;13.816;2023-06-22T00:46:17;26.70;54.60
46784;DHT22;32544;52.832;13.816;2023-06-22T00:47:18;26.70;54.60
46784;DHT22;32544;52.832;13.816;2023-06-22T00:48:19;26.70;54.60
46784;DHT22;32544;52.832;13.816;2023-06-22T00:49:22;26.70;54.60
46784;DHT22;32544;52.832;13.816;2023-06-22T00:50:27;26.70;54.60
46784;DHT22;32544;52.832;13.816;2023-06-22T00:51:29;26.70;54.60
46784;DHT22;32544;52.832;13.816;2023-06-22T00:52:29;26.70;54.60
46784;DHT22;32544;52.832;13.816;2023-06-22T00:53:31;26.70;54.60
46784;DHT22;32544;52.832;13.816;2023-06-22T00:54:35;26.70;54.50
46784;DHT22;32544;52.832;13.816;2023-06-22T00:55:45;26.70;54.60
46784;DHT22;32544;52.832;13.816;2023-06-22T00:56:47;26.70;54.50
46784;DHT22;32544;52.832;13.816;2023-06-22T00:57:48;26.70;54.50
46784;DHT22;32544;52.832;13.816;2023-06-22T00:58:49;26.70;54.60
46784;DHT22;32544;52.832;13.816;2023-06-22T00:59:53;26.70;54.60
46784;DHT22;32544;52.832;13.816;2023-06-22T01:00:54;26.70;54.60
46784;DHT22;32544;52.832;13.816;2023-06-22T01:01:55;26.70;55.20
46784;DHT22;32544;52.832;13.816;2023-06-22T01:02:55;26.70;54.60
46784;DHT22;32544;52.832;13.816;2023-06-22T01:03:56;26.70;54.60
46784;DHT22;32544;52.832;13.816;2023-06-22T01:04:57;26.70;54.50
46784;DHT22;32544;52.832;13.816;2023-06-22T01:05:59;26.70;54.60
46784;DHT22;32544;52.832;13.816;2023-06-22T01:07:10;26.70;54.60
46784;DHT22;32544;52.832;13.816;2023-06-22T01:09:22;26.70;54.50
46784;DHT22;32544;52.832;13.816;2023-06-22T01:10:27;26.70;54.60
46784;DHT22;32544;52.832;13.816;2023-06-22T01:11:33;26.70;54.50
46784;DHT22;32544;52.832;13.816;2023-06-22T01:12:38;26.70;54.50
46784;DHT22;32544;52.832;13.816;2023-06-22T01:14:46;26.70;54.50
46784;DHT22;32544;52.832;13.816;2023-06-22T01:15:55;26.70;54.50
46784;DHT22;32544;52.832;13.816;2023-06-22T01:16:57;26.70;54.50
46784;DHT22;32544;52.832;13.816;2023-06-22T01:17:59;26.70;54.50
46784;DHT22;32544;52.832;13.816;2023-06-22T01:19:02;26.70;54.50
46784;DHT22;32544;52.832;13.816;2023-06-22T01:20:09;26.70;54.50
46784;DHT22;32544;52.832;13.816;2023-06-22T01:21:13;26.70;54.40
46784;DHT22;32544;52.832;13.816;2023-06-22T01:22:15;26.70;54.40
46784;DHT22;32544;52.832;13.816;2023-06-22T01:23:21;26.70;54.40
46784;DHT22;32544;52.832;13.816;2023-06-22T01:24:33;26.70;54.40
46784;DHT22;32544;52.832;13.816;2023-06-22T01:25:45;26.70;54.30
46784;DHT22;32544;52.832;13.816;2023-06-22T01:29:16;26.70;54.40
46784;DHT22;32544;52.832;13.816;2023-06-22T01:30:17;26.70;54.40
46784;DHT22;32544;52.832;13.816;2023-06-22T01:31:23;26.70;54.40
46784;DHT22;32544;52.832;13.816;2023-06-22T01:32:24;26.70;54.40
46784;DHT22;32544;52.832;13.816;2023-06-22T01:33:25;26.60;54.40
46784;DHT22;32544;52.832;13.816;2023-06-22T01:34:26;26.70;54.40
46784;DHT22;32544;52.832;13.816;2023-06-22T01:35:27;26.70;54.40
46784;DHT22;32544;52.832;13.816;2023-06-22T01:36:29;26.70;54.50
46784;DHT22;32544;52.832;13.816;2023-06-22T01:37:32;26.70;54.40
46784;DHT22;32544;52.832;13.816;2023-06-22T01:38:33;26.70;54.50
46784;DHT22;32544;52.832;13.816;2023-06-22T01:39:34;26.70;54.50
46784;DHT22;32544;52.832;13.816;2023-06-22T01:40:35;26.70;54.50
46784;DHT22;32544;52.832;13.816;2023-06-22T01:41:37;26.70;54.40
46784;DHT22;32544;52.832;13.816;2023-06-22T01:42:38;26.70;54.40
46784;DHT22;32544;52.832;13.816;2023-06-22T01:43:41;26.70;54.40
46784;DHT22;32544;52.832;13.816;2023-06-22T01:44:42;26.70;54.40
46784;DHT22;32544;52.832;13.816;2023-06-22T01:45:43;26.70;54.40
46784;DHT22;32544;52.832;13.816;2023-06-22T01:46:44;26.70;54.40
46784;DHT22;32544;52.832;13.816;2023-06-22T01:47:45;26.70;54.40
46784;DHT22;32544;52.832;13.816;2023-06-22T01:48:47;26.70;54.30
46784;DHT22;32544;52.832;13.816;2023-06-22T01:49:48;26.70;54.30
46784;DHT22;32544;52.832;13.816;2023-06-22T01:50:49;26.70;54.30
46784;DHT22;32544;52.832;13.816;2023-06-22T01:51:51;26.70;54.30
46784;DHT22;32544;52.832;13.816;2023-06-22T01:52:51;26.70;54.30
46784;DHT22;32544;52.832;13.816;2023-06-22T01:53:53;26.70;54.30
46784;DHT22;32544;52.832;13.816;2023-06-22T01:54:53;26.70;54.30
46784;DHT22;32544;52.832;13.816;2023-06-22T01:55:54;26.70;54.30
46784;DHT22;32544;52.832;13.816;2023-06-22T01:56:56;26.70;54.30
46784;DHT22;32544;52.832;13.816;2023-06-22T01:57:56;26.70;54.30
46784;DHT22;32544;52.832;13.816;2023-06-22T01:59:01;26.70;54.30
46784;DHT22;32544;52.832;13.816;2023-06-22T02:00:04;26.70;54.30
46784;DHT22;32544;52.832;13.816;2023-06-22T02:01:15;26.70;54.30
46784;DHT22;32544;52.832;13.816;2023-06-22T02:02:19;26.70;54.30
46784;DHT22;32544;52.832;13.816;2023-06-22T02:03:25;26.70;54.30
46784;DHT22;32544;52.832;13.816;2023-06-22T02:04:27;26.70;54.30
46784;DHT22;32544;52.832;13.816;2023-06-22T02:05:35;26.70;54.30
46784;DHT22;32544;52.832;13.816;2023-06-22T02:06:37;26.70;54.30
46784;DHT22;32544;52.832;13.816;2023-06-22T02:08:12;26.70;54.30
46784;DHT22;32544;52.832;13.816;2023-06-22T02:09:23;26.70;54.30
46784;DHT22;32544;52.832;13.816;2023-06-22T02:10:25;26.70;54.30
46784;DHT22;32544;52.832;13.816;2023-06-22T02:11:27;26.70;54.30
46784;DHT22;32544;52.832;13.816;2023-06-22T02:12:29;26.70;54.30
46784;DHT22;32544;52.832;13.816;2023-06-22T02:13:31;26.60;54.20
46784;DHT22;32544;52.832;13.816;2023-06-22T02:14:32;26.60;54.20
46784;DHT22;32544;52.832;13.816;2023-06-22T02:15:33;26.60;54.20
46784;DHT22;32544;52.832;13.816;2023-06-22T02:16:34;26.70;54.30
46784;DHT22;32544;52.832;13.816;2023-06-22T02:17:37;26.60;54.20
46784;DHT22;32544;52.832;13.816;2023-06-22T02:18:38;26.60;54.20
46784;DHT22;32544;52.832;13.816;2023-06-22T02:19:41;26.60;54.20
46784;DHT22;32544;52.832;13.816;2023-06-22T02:20:42;26.60;54.20
46784;DHT22;32544;52.832;13.816;2023-06-22T02:21:42;26.60;54.10
46784;DHT22;32544;52.832;13.816;2023-06-22T02:22:43;26.60;54.10
46784;DHT22;32544;52.832;13.816;2023-06-22T02:23:45;26.60;54.20
46784;DHT22;32544;52.832;13.816;2023-06-22T02:24:46;26.60;54.80
46784;DHT22;32544;52.832;13.816;2023-06-22T02:25:46;26.60;54.10
46784;DHT22;32544;52.832;13.816;2023-06-22T02:26:47;26.60;54.10
46784;DHT22;32544;52.832;13.816;2023-06-22T02:27:48;26.60;54.10
46784;DHT22;32544;52.832;13.816;2023-06-22T02:28:51;26.60;54.10
46784;DHT22;32544;52.832;13.816;2023-06-22T02:29:52;26.60;54.10
46784;DHT22;32544;52.832;13.816;2023-06-22T02:30:52;26.60;54.10
46784;DHT22;32544;52.832;13.816;2023-06-22T02:31:53;26.60;54.10
46784;DHT22;32544;52.832;13.816;2023-06-22T02:32:54;26.60;54.00
46784;DHT22;32544;52.832;13.816;2023-06-22T02:33:58;26.60;54.00
46784;DHT22;32544;52.832;13.816;2023-06-22T02:34:59;26.60;54.00
46784;DHT22;32544;52.832;13.816;2023-06-22T02:36:00;26.60;54.00
46784;DHT22;32544;52.832;13.816;2023-06-22T02:37:05;26.60;54.10
46784;DHT22;32544;52.832;13.816;2023-06-22T02:38:06;26.60;54.10
46784;DHT22;32544;52.832;13.816;2023-06-22T02:39:08;26.60;54.00
46784;DHT22;32544;52.832;13.816;2023-06-22T02:40:11;26.60;54.00
46784;DHT22;32544;52.832;13.816;2023-06-22T02:41:12;26.60;54.00
46784;DHT22;32544;52.832;13.816;2023-06-22T02:42:13;26.60;54.00
46784;DHT22;32544;52.832;13.816;2023-06-22T02:43:16;26.60;54.00
46784;DHT22;32544;52.832;13.816;2023-06-22T02:44:18;26.60;54.00
46784;DHT22;32544;52.832;13.816;2023-06-22T02:45:19;26.60;54.00
46784;DHT22;32544;52.832;13.816;2023-06-22T02:46:20;26.60;54.00
46784;DHT22;32544;52.832;13.816;2023-06-22T02:47:20;26.60;54.00
46784;DHT22;32544;52.832;13.816;2023-06-22T02:48:21;26.60;54.00
46784;DHT22;32544;52.832;13.816;2023-06-22T02:49:22;26.60;53.90
46784;DHT22;32544;52.832;13.816;2023-06-22T02:50:23;26.50;53.80
46784;DHT22;32544;52.832;13.816;2023-06-22T02:51:23;26.60;53.90
46784;DHT22;32544;52.832;13.816;2023-06-22T02:52:24;26.50;53.90
46784;DHT22;32544;52.832;13.816;2023-06-22T02:53:25;26.50;53.90
46784;DHT22;32544;52.832;13.816;2023-06-22T02:54:25;26.50;53.90
46784;DHT22;32544;52.832;13.816;2023-06-22T02:55:28;26.50;53.90
46784;DHT22;32544;52.832;13.816;2023-06-22T02:56:32;26.50;53.80
46784;DHT22;32544;52.832;13.816;2023-06-22T02:57:35;26.50;53.80
46784;DHT22;32544;52.832;13.816;2023-06-22T02:58:35;26.50;53.80
46784;DHT22;32544;52.832;13.816;2023-06-22T02:59:40;26.50;53.90
46784;DHT22;32544;52.832;13.816;2023-06-22T03:00:43;26.60;53.90
46784;DHT22;32544;52.832;13.816;2023-06-22T03:01:44;26.50;53.80
46784;DHT22;32544;52.832;13.816;2023-06-22T03:02:56;26.50;53.80
46784;DHT22;32544;52.832;13.816;2023-06-22T03:03:57;26.50;53.80
46784;DHT22;32544;52.832;13.816;2023-06-22T03:04:58;26.50;53.80
46784;DHT22;32544;52.832;13.816;2023-06-22T03:05:58;26.50;53.80
46784;DHT22;32544;52.832;13.816;2023-06-22T03:07:01;26.50;53.90
46784;DHT22;32544;52.832;13.816;2023-06-22T03:08:03;26.50;53.80
46784;DHT22;32544;52.832;13.816;2023-06-22T03:09:07;26.60;53.90
46784;DHT22;32544;52.832;13.816;2023-06-22T03:10:10;26.50;53.70
46784;DHT22;32544;52.832;13.816;2023-06-22T03:11:11;26.50;53.70
46784;DHT22;32544;52.832;13.816;2023-06-22T03:12:11;26.50;53.70
46784;DHT22;32544;52.832;13.816;2023-06-22T03:13:20;26.50;53.70
46784;DHT22;32544;52.832;13.816;2023-06-22T03:14:21;26.50;53.70
46784;DHT22;32544;52.832;13.816;2023-06-22T03:15:22;26.50;53.70
46784;DHT22;32544;52.832;13.816;2023-06-22T03:16:23;26.50;53.70
46784;DHT22;32544;52.832;13.816;2023-06-22T03:17:24;26.50;53.70
46784;DHT22;32544;52.832;13.816;2023-06-22T03:18:24;26.50;53.70
46784;DHT22;32544;52.832;13.816;2023-06-22T03:19:25;26.50;53.70
46784;DHT22;32544;52.832;13.816;2023-06-22T03:20:26;26.50;53.70
46784;DHT22;32544;52.832;13.816;2023-06-22T03:21:33;26.50;53.70
46784;DHT22;32544;52.832;13.816;2023-06-22T03:22:35;26.50;53.70
46784;DHT22;32544;52.832;13.816;2023-06-22T03:23:36;26.50;53.70
46784;DHT22;32544;52.832;13.816;2023-06-22T03:24:36;26.50;53.70
46784;DHT22;32544;52.832;13.816;2023-06-22T03:25:40;26.50;53.70
46784;DHT22;32544;52.832;13.816;2023-06-22T03:26:41;26.50;53.70
46784;DHT22;32544;52.832;13.816;2023-06-22T03:27:42;26.50;53.70
46784;DHT22;32544;52.832;13.816;2023-06-22T03:28:43;26.50;53.70
46784;DHT22;32544;52.832;13.816;2023-06-22T03:29:43;26.50;53.70
46784;DHT22;32544;52.832;13.816;2023-06-22T03:30:45;26.50;53.70
46784;DHT22;32544;52.832;13.816;2023-06-22T03:31:46;26.50;53.70
46784;DHT22;32544;52.832;13.816;2023-06-22T03:32:46;26.50;53.70
46784;DHT22;32544;52.832;13.816;2023-06-22T03:33:47;26.50;53.70
46784;DHT22;32544;52.832;13.816;2023-06-22T03:34:49;26.50;53.70
46784;DHT22;32544;52.832;13.816;2023-06-22T03:35:50;26.50;53.70
46784;DHT22;32544;52.832;13.816;2023-06-22T03:36:51;26.50;53.70
46784;DHT22;32544;52.832;13.816;2023-06-22T03:37:51;26.50;53.70
46784;DHT22;32544;52.832;13.816;2023-06-22T03:38:52;26.50;53.70
46784;DHT22;32544;52.832;13.816;2023-06-22T03:39:53;26.50;53.70
46784;DHT22;32544;52.832;13.816;2023-06-22T03:40:54;26.50;53.70
46784;DHT22;32544;52.832;13.816;2023-06-22T03:41:55;26.50;53.70
46784;DHT22;32544;52.832;13.816;2023-06-22T03:42:55;26.50;53.80
46784;DHT22;32544;52.832;13.816;2023-06-22T03:43:56;26.50;53.70
46784;DHT22;32544;52.832;13.816;2023-06-22T03:44:57;26.50;53.70
46784;DHT22;32544;52.832;13.816;2023-06-22T03:45:57;26.50;53.70
46784;DHT22;32544;52.832;13.816;2023-06-22T03:46:58;26.50;53.70
46784;DHT22;32544;52.832;13.816;2023-06-22T03:47:58;26.50;53.70
46784;DHT22;32544;52.832;13.816;2023-06-22T03:48:59;26.50;53.70
46784;DHT22;32544;52.832;13.816;2023-06-22T03:50:00;26.60;53.80
46784;DHT22;32544;52.832;13.816;2023-06-22T03:51:00;26.50;53.60
46784;DHT22;32544;52.832;13.816;2023-06-22T03:52:01;26.50;53.60
46784;DHT22;32544;52.832;13.816;2023-06-22T03:53:02;26.50;53.60
46784;DHT22;32544;52.832;13.816;2023-06-22T03:54:03;26.50;53.70
46784;DHT22;32544;52.832;13.816;2023-06-22T03:55:03;26.50;53.70
46784;DHT22;32544;52.832;13.816;2023-06-22T03:56:04;26.50;53.70
46784;DHT22;32544;52.832;13.816;2023-06-22T03:57:08;26.50;53.70
46784;DHT22;32544;52.832;13.816;2023-06-22T03:58:08;26.50;53.70
46784;DHT22;32544;52.832;13.816;2023-06-22T03:59:09;26.50;53.70
46784;DHT22;32544;52.832;13.816;2023-06-22T04:00:10;26.50;53.70
46784;DHT22;32544;52.832;13.816;2023-06-22T04:01:14;26.50;54.30
46784;DHT22;32544;52.832;13.816;2023-06-22T04:02:17;26.50;53.70
46784;DHT22;32544;52.832;13.816;2023-06-22T04:03:18;26.50;53.70
46784;DHT22;32544;52.832;13.816;2023-06-22T04:04:21;26.50;53.70
46784;DHT22;32544;52.832;13.816;2023-06-22T04:05:22;26.50;53.70
46784;DHT22;32544;52.832;13.816;2023-06-22T04:06:22;26.50;53.70
46784;DHT22;32544;52.832;13.816;2023-06-22T04:07:23;26.50;53.70
46784;DHT22;32544;52.832;13.816;2023-06-22T04:08:23;26.50;53.70
46784;DHT22;32544;52.832;13.816;2023-06-22T04:09:24;26.50;53.70
46784;DHT22;32544;52.832;13.816;2023-06-22T04:10:24;26.50;53.70
46784;DHT22;32544;52.832;13.816;2023-06-22T04:11:25;26.50;53.70
46784;DHT22;32544;52.832;13.816;2023-06-22T04:12:25;26.50;53.70
46784;DHT22;32544;52.832;13.816;2023-06-22T04:13:26;26.50;53.70
46784;DHT22;32544;52.832;13.816;2023-06-22T04:14:26;26.50;53.70
46784;DHT22;32544;52.832;13.816;2023-06-22T04:15:27;26.50;53.70
46784;DHT22;32544;52.832;13.816;2023-06-22T04:16:28;26.50;53.70
46784;DHT22;32544;52.832;13.816;2023-06-22T04:17:28;26.50;53.70
46784;DHT22;32544;52.832;13.816;2023-06-22T04:18:29;26.50;53.70
46784;DHT22;32544;52.832;13.816;2023-06-22T04:19:29;26.50;53.70
46784;DHT22;32544;52.832;13.816;2023-06-22T04:20:31;26.50;53.70
46784;DHT22;32544;52.832;13.816;2023-06-22T04:21:31;26.50;53.70
46784;DHT22;32544;52.832;13.816;2023-06-22T04:22:32;26.50;53.70
46784;DHT22;32544;52.832;13.816;2023-06-22T04:23:32;26.50;53.70
46784;DHT22;32544;52.832;13.816;2023-06-22T04:24:33;26.50;53.70
46784;DHT22;32544;52.832;13.816;2023-06-22T04:25:34;26.50;53.70
46784;DHT22;32544;52.832;13.816;2023-06-22T04:26:34;26.50;53.70
46784;DHT22;32544;52.832;13.816;2023-06-22T04:27:37;26.40;53.60
46784;DHT22;32544;52.832;13.816;2023-06-22T04:28:40;26.50;53.70
46784;DHT22;32544;52.832;13.816;2023-06-22T04:29:41;26.50;53.70
46784;DHT22;32544;52.832;13.816;2023-06-22T04:30:48;26.40;53.60
46784;DHT22;32544;52.832;13.816;2023-06-22T04:31:51;26.40;53.60
46784;DHT22;32544;52.832;13.816;2023-06-22T04:32:51;26.40;53.60
46784;DHT22;32544;52.832;13.816;2023-06-22T04:33:59;26.40;53.60
46784;DHT22;32544;52.832;13.816;2023-06-22T04:35:06;26.40;53.60
46784;DHT22;32544;52.832;13.816;2023-06-22T04:36:07;26.50;53.70
46784;DHT22;32544;52.832;13.816;2023-06-22T04:37:07;26.40;53.60
46784;DHT22;32544;52.832;13.816;2023-06-22T04:38:08;26.40;53.60
46784;DHT22;32544;52.832;13.816;2023-06-22T04:39:09;26.40;53.60
46784;DHT22;32544;52.832;13.816;2023-06-22T04:40:10;26.50;53.70
46784;DHT22;32544;52.832;13.816;2023-06-22T04:41:10;26.40;53.60
46784;DHT22;32544;52.832;13.816;2023-06-22T04:42:25;26.40;53.60
46784;DHT22;32544;52.832;13.816;2023-06-22T04:43:26;26.40;53.60
46784;DHT22;32544;52.832;13.816;2023-06-22T04:44:30;26.40;53.70
46784;DHT22;32544;52.832;13.816;2023-06-22T04:45:31;26.50;53.70
46784;DHT22;32544;52.832;13.816;2023-06-22T04:46:31;26.40;53.60
46784;DHT22;32544;52.832;13.816;2023-06-22T04:47:38;26.40;53.60
46784;DHT22;32544;52.832;13.816;2023-06-22T04:48:39;26.40;53.70
46784;DHT22;32544;52.832;13.816;2023-06-22T04:49:40;26.40;53.70
46784;DHT22;32544;52.832;13.816;2023-06-22T04:50:43;26.40;53.70
46784;DHT22;32544;52.832;13.816;2023-06-22T04:51:45;26.40;53.70
46784;DHT22;32544;52.832;13.816;2023-06-22T04:52:45;26.40;53.70
46784;DHT22;32544;52.832;13.816;2023-06-22T04:53:46;26.40;53.70
46784;DHT22;32544;52.832;13.816;2023-06-22T04:54:47;26.40;53.70
46784;DHT22;32544;52.832;13.816;2023-06-22T04:55:55;26.40;53.70
46784;DHT22;32544;52.832;13.816;2023-06-22T04:56:56;26.40;53.70
46784;DHT22;32544;52.832;13.816;2023-06-22T04:57:57;26.40;54.30
46784;DHT22;32544;52.832;13.816;2023-06-22T04:59:04;26.40;53.80
46784;DHT22;32544;52.832;13.816;2023-06-22T05:00:05;26.40;53.80
46784;DHT22;32544;52.832;13.816;2023-06-22T05:01:12;26.40;53.80
46784;DHT22;32544;52.832;13.816;2023-06-22T05:02:13;26.40;53.80
46784;DHT22;32544;52.832;13.816;2023-06-22T05:03:13;26.40;53.80
46784;DHT22;32544;52.832;13.816;2023-06-22T05:04:14;26.40;53.80
46784;DHT22;32544;52.832;13.816;2023-06-22T05:05:15;26.40;53.80
46784;DHT22;32544;52.832;13.816;2023-06-22T05:06:15;26.40;53.90
46784;DHT22;32544;52.832;13.816;2023-06-22T05:07:16;26.40;53.90
46784;DHT22;32544;52.832;13.816;2023-06-22T05:08:17;26.40;53.90
46784;DHT22;32544;52.832;13.816;2023-06-22T05:09:18;26.40;53.90
46784;DHT22;32544;52.832;13.816;2023-06-22T05:10:19;26.40;53.90
46784;DHT22;32544;52.832;13.816;2023-06-22T05:11:20;26.40;53.90
46784;DHT22;32544;52.832;13.816;2023-06-22T05:12:20;26.40;53.90
46784;DHT22;32544;52.832;13.816;2023-06-22T05:13:21;26.40;53.90
46784;DHT22;32544;52.832;13.816;2023-06-22T05:14:22;26.40;53.90
46784;DHT22;32544;52.832;13.816;2023-06-22T05:15:22;26.40;53.90
46784;DHT22;32544;52.832;13.816;2023-06-22T05:16:27;26.40;53.90
46784;DHT22;32544;52.832;13.816;2023-06-22T05:17:27;26.40;54.00
46784;DHT22;32544;52.832;13.816;2023-06-22T05:18:28;26.40;54.10
46784;DHT22;32544;52.832;13.816;2023-06-22T05:19:29;26.40;54.10
46784;DHT22;32544;52.832;13.816;2023-06-22T05:20:33;26.40;54.20
46784;DHT22;32544;52.832;13.816;2023-06-22T05:21:36;26.30;54.10
46784;DHT22;32544;52.832;13.816;2023-06-22T05:22:37;26.30;54.20
46784;DHT22;32544;52.832;13.816;2023-06-22T05:23:38;26.30;54.30
46784;DHT22;32544;52.832;13.816;2023-06-22T05:24:38;26.30;54.30
46784;DHT22;32544;52.832;13.816;2023-06-22T05:25:39;26.30;54.20
46784;DHT22;32544;52.832;13.816;2023-06-22T05:26:39;26.30;54.20
46784;DHT22;32544;52.832;13.816;2023-06-22T05:27:40;26.40;54.20
46784;DHT22;32544;52.832;13.816;2023-06-22T05:28:40;26.40;54.20
46784;DHT22;32544;52.832;13.816;2023-06-22T05:29:41;26.40;54.20
46784;DHT22;32544;52.832;13.816;2023-06-22T05:30:42;26.40;54.20
46784;DHT22;32544;52.832;13.816;2023-06-22T05:31:43;26.40;54.20
46784;DHT22;32544;52.832;13.816;2023-06-22T05:32:44;26.40;54.20
46784;DHT22;32544;52.832;13.816;2023-06-22T05:33:44;26.40;54.20
46784;DHT22;32544;52.832;13.816;2023-06-22T05:34:45;26.40;54.10
46784;DHT22;32544;52.832;13.816;2023-06-22T05:35:45;26.40;54.10
46784;DHT22;32544;52.832;13.816;2023-06-22T05:36:47;26.40;54.10
46784;DHT22;32544;52.832;13.816;2023-06-22T05:37:47;26.40;54.10
46784;DHT22;32544;52.832;13.816;2023-06-22T05:38:48;26.40;54.10
46784;DHT22;32544;52.832;13.816;2023-06-22T05:39:49;26.40;54.10
46784;DHT22;32544;52.832;13.816;2023-06-22T05:40:49;26.40;54.10
46784;DHT22;32544;52.832;13.816;2023-06-22T05:41:50;26.40;54.10
46784;DHT22;32544;52.832;13.816;2023-06-22T05:42:50;26.40;54.10
46784;DHT22;32544;52.832;13.816;2023-06-22T05:43:51;26.40;54.10
46784;DHT22;32544;52.832;13.816;2023-06-22T05:44:52;26.40;54.00
46784;DHT22;32544;52.832;13.816;2023-06-22T05:45:53;26.40;54.00
46784;DHT22;32544;52.832;13.816;2023-06-22T05:46:54;26.40;54.00
46784;DHT22;32544;52.832;13.816;2023-06-22T05:47:54;26.40;54.00
46784;DHT22;32544;52.832;13.816;2023-06-22T05:48:55;26.40;54.60
46784;DHT22;32544;52.832;13.816;2023-06-22T05:49:55;26.40;53.90
46784;DHT22;32544;52.832;13.816;2023-06-22T05:50:56;26.40;54.00
46784;DHT22;32544;52.832;13.816;2023-06-22T05:51:57;26.40;54.00
46784;DHT22;32544;52.832;13.816;2023-06-22T05:52:57;26.40;54.00
46784;DHT22;32544;52.832;13.816;2023-06-22T05:53:58;26.40;53.90
46784;DHT22;32544;52.832;13.816;2023-06-22T05:54:58;26.40;53.90
46784;DHT22;32544;52.832;13.816;2023-06-22T05:55:59;26.40;53.90
46784;DHT22;32544;52.832;13.816;2023-06-22T05:56:59;26.40;53.90
46784;DHT22;32544;52.832;13.816;2023-06-22T05:58:00;26.40;53.90
46784;DHT22;32544;52.832;13.816;2023-06-22T05:59:00;26.40;53.90
46784;DHT22;32544;52.832;13.816;2023-06-22T06:00:01;26.30;53.80
46784;DHT22;32544;52.832;13.816;2023-06-22T06:01:06;26.30;53.90
46784;DHT22;32544;52.832;13.816;2023-06-22T06:02:06;26.30;53.80
46784;DHT22;32544;52.832;13.816;2023-06-22T06:03:07;26.30;53.80
46784;DHT22;32544;52.832;13.816;2023-06-22T06:04:08;26.40;53.90
46784;DHT22;32544;52.832;13.816;2023-06-22T06:05:11;26.30;53.80
46784;DHT22;32544;52.832;13.816;2023-06-22T06:06:14;26.40;53.90
46784;DHT22;32544;52.832;13.816;2023-06-22T06:07:14;26.40;54.00
46784;DHT22;32544;52.832;13.816;2023-06-22T06:08:15;26.40;53.90
46784;DHT22;32544;52.832;13.816;2023-06-22T06:09:15;26.40;53.80
46784;DHT22;32544;52.832;13.816;2023-06-22T06:10:16;26.40;53.80
46784;DHT22;32544;52.832;13.816;2023-06-22T06:11:17;26.40;53.60
46784;DHT22;32544;52.832;13.816;2023-06-22T06:12:17;26.40;53.70
46784;DHT22;32544;52.832;13.816;2023-06-22T06:13:18;26.40;53.70
46784;DHT22;32544;52.832;13.816;2023-06-22T06:14:18;26.40;53.70
46784;DHT22;32544;52.832;13.816;2023-06-22T06:15:20;26.40;53.70
46784;DHT22;32544;52.832;13.816;2023-06-22T06:16:21;26.40;53.60
46784;DHT22;32544;52.832;13.816;2023-06-22T06:17:22;26.40;53.60
46784;DHT22;32544;52.832;13.816;2023-06-22T06:18:22;26.40;53.60
46784;DHT22;32544;52.832;13.816;2023-06-22T06:19:23;26.40;53.60
46784;DHT22;32544;52.832;13.816;2023-06-22T06:20:24;26.40;53.60
46784;DHT22;32544;52.832;13.816;2023-06-22T06:21:24;26.50;53.70
46784;DHT22;32544;52.832;13.816;2023-06-22T06:22:25;26.50;53.60
46784;DHT22;32544;52.832;13.816;2023-06-22T06:23:25;26.50;53.60
46784;DHT22;32544;52.832;13.816;2023-06-22T06:24:26;26.50;53.40
46784;DHT22;32544;52.832;13.816;2023-06-22T06:25:27;26.50;53.40
46784;DHT22;32544;52.832;13.816;2023-06-22T06:26:27;26.50;53.40
46784;DHT22;32544;52.832;13.816;2023-06-22T06:27:29;26.50;53.20
46784;DHT22;32544;52.832;13.816;2023-06-22T06:28:30;26.50;53.20